Ragersville, Ohio
Current Conditions -  °F | °C
As of 2:53 AM on Thursday 18 Dec 2014 (Local Time) from KPHD Reporting Station
Overcast Overcast  
Wind Chill: 19°   Ceiling: 2400
Heat Index: 29°   Visibility: 10mi
Dew Point: 20°   Wind: 12mph
Humidity: 69%   Direction: 310°NW
Pressure: 30.22"   Gusts: NA
Location:  40.5178°N, 81.673°W
Report Text: KPHD 180753Z AUTO 31010KT 10SM OVC024 M02/M07 A3022 RMK AO2 SLP243 T10171067
Loading
Personal Weather Stations






























Interactive Weather Map New forecast layout! Learn more

10-Day Weather Forecast

Advertisements
Track Severe Weather on mobile